sensor_id;sensor_type;location;lat;lon;timestamp;P1;durP1;ratioP1;P2;durP2;ratioP2
43256;SDS011;28860;43.212;27.934;2023-07-30T00:00:25;6.40;;;2.47;;
43256;SDS011;28860;43.212;27.934;2023-07-30T00:02:50;6.47;;;2.58;;
43256;SDS011;28860;43.212;27.934;2023-07-30T00:05:16;5.60;;;2.90;;
43256;SDS011;28860;43.212;27.934;2023-07-30T00:07:42;4.13;;;2.50;;
43256;SDS011;28860;43.212;27.934;2023-07-30T00:10:07;3.90;;;2.15;;
43256;SDS011;28860;43.212;27.934;2023-07-30T00:12:33;4.43;;;2.47;;
43256;SDS011;28860;43.212;27.934;2023-07-30T00:14:59;5.35;;;2.35;;
43256;SDS011;28860;43.212;27.934;2023-07-30T00:17:24;5.78;;;2.45;;
43256;SDS011;28860;43.212;27.934;2023-07-30T00:19:50;5.80;;;2.50;;
43256;SDS011;28860;43.212;27.934;2023-07-30T00:22:16;10.70;;;2.50;;
43256;SDS011;28860;43.212;27.934;2023-07-30T00:24:41;6.68;;;2.30;;
43256;SDS011;28860;43.212;27.934;2023-07-30T00:27:07;7.25;;;2.42;;
43256;SDS011;28860;43.212;27.934;2023-07-30T00:29:35;5.40;;;2.47;;
43256;SDS011;28860;43.212;27.934;2023-07-30T00:32:01;5.30;;;2.08;;
43256;SDS011;28860;43.212;27.934;2023-07-30T00:34:27;9.65;;;2.40;;
43256;SDS011;28860;43.212;27.934;2023-07-30T00:36:52;6.85;;;2.67;;
43256;SDS011;28860;43.212;27.934;2023-07-30T00:39:18;5.57;;;2.35;;
43256;SDS011;28860;43.212;27.934;2023-07-30T00:41:43;5.32;;;2.33;;
43256;SDS011;28860;43.212;27.934;2023-07-30T00:44:11;10.20;;;2.58;;
43256;SDS011;28860;43.212;27.934;2023-07-30T00:46:36;5.05;;;2.28;;
43256;SDS011;28860;43.212;27.934;2023-07-30T00:49:02;2.95;;;2.25;;
43256;SDS011;28860;43.212;27.934;2023-07-30T00:51:28;5.20;;;2.58;;
43256;SDS011;28860;43.212;27.934;2023-07-30T00:53:56;6.00;;;2.50;;
43256;SDS011;28860;43.212;27.934;2023-07-30T00:56:22;5.20;;;2.47;;
43256;SDS011;28860;43.212;27.934;2023-07-30T00:58:48;6.57;;;2.40;;
43256;SDS011;28860;43.212;27.934;2023-07-30T01:01:14;5.40;;;2.58;;
43256;SDS011;28860;43.212;27.934;2023-07-30T01:03:40;8.02;;;2.40;;
43256;SDS011;28860;43.212;27.934;2023-07-30T01:06:06;5.53;;;2.45;;
43256;SDS011;28860;43.212;27.934;2023-07-30T01:08:34;6.10;;;2.25;;
43256;SDS011;28860;43.212;27.934;2023-07-30T01:11:00;10.27;;;2.65;;
43256;SDS011;28860;43.212;27.934;2023-07-30T01:13:28;6.15;;;2.47;;
43256;SDS011;28860;43.212;27.934;2023-07-30T01:15:54;9.10;;;2.47;;
43256;SDS011;28860;43.212;27.934;2023-07-30T01:18:19;8.35;;;3.00;;
43256;SDS011;28860;43.212;27.934;2023-07-30T01:20:45;6.43;;;2.50;;
43256;SDS011;28860;43.212;27.934;2023-07-30T01:23:10;6.50;;;2.40;;
43256;SDS011;28860;43.212;27.934;2023-07-30T01:25:38;3.80;;;2.60;;
43256;SDS011;28860;43.212;27.934;2023-07-30T01:28:05;5.00;;;2.20;;
43256;SDS011;28860;43.212;27.934;2023-07-30T01:30:38;4.55;;;2.50;;
43256;SDS011;28860;43.212;27.934;2023-07-30T01:33:10;7.55;;;2.35;;
43256;SDS011;28860;43.212;27.934;2023-07-30T01:35:36;7.32;;;2.40;;
43256;SDS011;28860;43.212;27.934;2023-07-30T01:38:03;5.18;;;2.78;;
43256;SDS011;28860;43.212;27.934;2023-07-30T01:40:31;6.00;;;2.30;;
43256;SDS011;28860;43.212;27.934;2023-07-30T01:42:57;6.47;;;2.67;;
43256;SDS011;28860;43.212;27.934;2023-07-30T01:45:23;7.80;;;2.47;;
43256;SDS011;28860;43.212;27.934;2023-07-30T01:47:49;9.00;;;3.05;;
43256;SDS011;28860;43.212;27.934;2023-07-30T01:50:14;7.88;;;2.50;;
43256;SDS011;28860;43.212;27.934;2023-07-30T01:52:40;4.38;;;2.47;;
43256;SDS011;28860;43.212;27.934;2023-07-30T01:55:08;5.40;;;2.70;;
43256;SDS011;28860;43.212;27.934;2023-07-30T01:57:34;6.60;;;2.60;;
43256;SDS011;28860;43.212;27.934;2023-07-30T02:00:00;7.90;;;2.42;;
43256;SDS011;28860;43.212;27.934;2023-07-30T02:02:25;8.38;;;2.42;;
43256;SDS011;28860;43.212;27.934;2023-07-30T02:04:51;3.78;;;2.20;;
43256;SDS011;28860;43.212;27.934;2023-07-30T02:07:20;9.32;;;2.70;;
43256;SDS011;28860;43.212;27.934;2023-07-30T02:09:45;5.28;;;2.40;;
43256;SDS011;28860;43.212;27.934;2023-07-30T02:12:11;6.55;;;2.40;;
43256;SDS011;28860;43.212;27.934;2023-07-30T02:14:36;6.18;;;2.78;;
43256;SDS011;28860;43.212;27.934;2023-07-30T02:17:02;4.05;;;2.15;;
43256;SDS011;28860;43.212;27.934;2023-07-30T02:19:28;4.28;;;2.50;;
43256;SDS011;28860;43.212;27.934;2023-07-30T02:21:56;5.85;;;2.83;;
43256;SDS011;28860;43.212;27.934;2023-07-30T02:24:21;5.85;;;2.53;;
43256;SDS011;28860;43.212;27.934;2023-07-30T02:26:47;6.43;;;2.50;;
43256;SDS011;28860;43.212;27.934;2023-07-30T02:29:13;5.82;;;2.60;;
43256;SDS011;28860;43.212;27.934;2023-07-30T02:31:39;8.38;;;2.40;;
43256;SDS011;28860;43.212;27.934;2023-07-30T02:34:05;6.35;;;2.67;;
43256;SDS011;28860;43.212;27.934;2023-07-30T02:36:34;8.00;;;2.42;;
43256;SDS011;28860;43.212;27.934;2023-07-30T02:39:00;4.78;;;2.25;;
43256;SDS011;28860;43.212;27.934;2023-07-30T02:41:25;7.05;;;2.38;;
43256;SDS011;28860;43.212;27.934;2023-07-30T02:43:51;4.72;;;2.53;;
43256;SDS011;28860;43.212;27.934;2023-07-30T02:46:16;6.40;;;2.17;;
43256;SDS011;28860;43.212;27.934;2023-07-30T02:48:42;6.72;;;2.47;;
43256;SDS011;28860;43.212;27.934;2023-07-30T02:51:08;5.05;;;2.40;;
43256;SDS011;28860;43.212;27.934;2023-07-30T02:53:33;4.90;;;2.10;;
43256;SDS011;28860;43.212;27.934;2023-07-30T02:55:59;6.15;;;2.30;;
43256;SDS011;28860;43.212;27.934;2023-07-30T02:58:28;6.18;;;2.50;;
43256;SDS011;28860;43.212;27.934;2023-07-30T03:00:53;9.40;;;2.30;;
43256;SDS011;28860;43.212;27.934;2023-07-30T03:03:22;3.53;;;2.17;;
43256;SDS011;28860;43.212;27.934;2023-07-30T03:05:47;8.45;;;2.60;;
43256;SDS011;28860;43.212;27.934;2023-07-30T03:08:13;5.50;;;2.50;;
43256;SDS011;28860;43.212;27.934;2023-07-30T03:10:39;5.80;;;2.63;;
43256;SDS011;28860;43.212;27.934;2023-07-30T03:13:04;6.38;;;2.70;;
43256;SDS011;28860;43.212;27.934;2023-07-30T03:15:33;7.03;;;2.80;;
43256;SDS011;28860;43.212;27.934;2023-07-30T03:17:59;8.77;;;2.35;;
43256;SDS011;28860;43.212;27.934;2023-07-30T03:20:27;4.05;;;2.50;;
43256;SDS011;28860;43.212;27.934;2023-07-30T03:22:55;10.90;;;3.45;;
43256;SDS011;28860;43.212;27.934;2023-07-30T03:25:23;5.22;;;2.80;;
43256;SDS011;28860;43.212;27.934;2023-07-30T03:27:49;7.32;;;2.90;;
43256;SDS011;28860;43.212;27.934;2023-07-30T03:30:18;6.38;;;2.45;;
43256;SDS011;28860;43.212;27.934;2023-07-30T03:32:46;5.35;;;2.60;;
43256;SDS011;28860;43.212;27.934;2023-07-30T03:35:11;14.15;;;3.03;;
43256;SDS011;28860;43.212;27.934;2023-07-30T03:37:37;12.40;;;3.15;;
43256;SDS011;28860;43.212;27.934;2023-07-30T03:40:03;8.55;;;2.70;;
43256;SDS011;28860;43.212;27.934;2023-07-30T03:42:29;14.85;;;3.08;;
43256;SDS011;28860;43.212;27.934;2023-07-30T03:44:54;8.32;;;3.13;;
43256;SDS011;28860;43.212;27.934;2023-07-30T03:47:22;9.02;;;2.88;;
43256;SDS011;28860;43.212;27.934;2023-07-30T03:49:48;6.30;;;2.75;;
43256;SDS011;28860;43.212;27.934;2023-07-30T03:52:17;6.53;;;3.17;;
43256;SDS011;28860;43.212;27.934;2023-07-30T03:54:42;7.15;;;3.50;;
43256;SDS011;28860;43.212;27.934;2023-07-30T03:57:13;9.32;;;3.50;;
43256;SDS011;28860;43.212;27.934;2023-07-30T03:59:39;11.48;;;3.13;;
43256;SDS011;28860;43.212;27.934;2023-07-30T04:02:05;12.77;;;3.30;;
43256;SDS011;28860;43.212;27.934;2023-07-30T04:04:30;12.93;;;3.40;;
43256;SDS011;28860;43.212;27.934;2023-07-30T04:06:56;11.88;;;3.13;;
43256;SDS011;28860;43.212;27.934;2023-07-30T04:09:22;7.25;;;2.70;;
43256;SDS011;28860;43.212;27.934;2023-07-30T04:11:47;14.93;;;3.47;;
43256;SDS011;28860;43.212;27.934;2023-07-30T04:14:13;14.07;;;3.13;;
43256;SDS011;28860;43.212;27.934;2023-07-30T04:16:41;14.93;;;3.10;;
43256;SDS011;28860;43.212;27.934;2023-07-30T04:19:09;7.95;;;3.15;;
43256;SDS011;28860;43.212;27.934;2023-07-30T04:21:34;7.97;;;3.28;;
43256;SDS011;28860;43.212;27.934;2023-07-30T04:24:00;7.22;;;2.85;;
43256;SDS011;28860;43.212;27.934;2023-07-30T04:26:26;13.85;;;2.80;;
43256;SDS011;28860;43.212;27.934;2023-07-30T04:28:51;8.25;;;3.08;;
43256;SDS011;28860;43.212;27.934;2023-07-30T04:31:17;11.57;;;2.67;;
43256;SDS011;28860;43.212;27.934;2023-07-30T04:33:43;11.23;;;2.95;;
43256;SDS011;28860;43.212;27.934;2023-07-30T04:36:08;9.52;;;2.80;;
43256;SDS011;28860;43.212;27.934;2023-07-30T04:38:36;5.13;;;2.53;;
43256;SDS011;28860;43.212;27.934;2023-07-30T04:41:04;4.85;;;2.20;;
43256;SDS011;28860;43.212;27.934;2023-07-30T04:43:30;4.75;;;2.20;;
43256;SDS011;28860;43.212;27.934;2023-07-30T04:45:55;3.22;;;2.03;;
43256;SDS011;28860;43.212;27.934;2023-07-30T04:48:21;5.65;;;1.92;;
43256;SDS011;28860;43.212;27.934;2023-07-30T04:50:47;6.38;;;2.08;;
43256;SDS011;28860;43.212;27.934;2023-07-30T04:53:14;4.47;;;1.95;;
43256;SDS011;28860;43.212;27.934;2023-07-30T04:55:43;3.95;;;2.03;;
43256;SDS011;28860;43.212;27.934;2023-07-30T04:58:09;5.25;;;2.40;;
43256;SDS011;28860;43.212;27.934;2023-07-30T05:00:35;3.53;;;1.70;;
43256;SDS011;28860;43.212;27.934;2023-07-30T05:03:00;5.32;;;1.90;;
43256;SDS011;28860;43.212;27.934;2023-07-30T05:05:26;7.13;;;1.90;;
43256;SDS011;28860;43.212;27.934;2023-07-30T05:07:51;4.10;;;2.10;;
43256;SDS011;28860;43.212;27.934;2023-07-30T05:10:17;5.05;;;2.17;;
43256;SDS011;28860;43.212;27.934;2023-07-30T05:12:43;5.53;;;2.42;;
43256;SDS011;28860;43.212;27.934;2023-07-30T05:15:08;6.93;;;2.72;;
43256;SDS011;28860;43.212;27.934;2023-07-30T05:17:34;6.47;;;2.40;;
43256;SDS011;28860;43.212;27.934;2023-07-30T05:20:00;6.30;;;2.38;;
43256;SDS011;28860;43.212;27.934;2023-07-30T05:22:25;12.30;;;2.40;;
43256;SDS011;28860;43.212;27.934;2023-07-30T05:24:51;7.28;;;2.40;;
43256;SDS011;28860;43.212;27.934;2023-07-30T05:27:17;9.32;;;2.85;;
43256;SDS011;28860;43.212;27.934;2023-07-30T05:29:42;5.90;;;2.47;;
43256;SDS011;28860;43.212;27.934;2023-07-30T05:32:08;7.55;;;2.72;;
43256;SDS011;28860;43.212;27.934;2023-07-30T05:34:34;6.55;;;2.97;;
43256;SDS011;28860;43.212;27.934;2023-07-30T05:36:59;10.15;;;2.50;;
43256;SDS011;28860;43.212;27.934;2023-07-30T05:39:25;8.07;;;2.38;;
43256;SDS011;28860;43.212;27.934;2023-07-30T05:41:51;6.00;;;2.50;;
43256;SDS011;28860;43.212;27.934;2023-07-30T05:44:17;5.75;;;2.95;;
43256;SDS011;28860;43.212;27.934;2023-07-30T05:46:42;3.72;;;2.30;;
43256;SDS011;28860;43.212;27.934;2023-07-30T05:49:08;6.18;;;2.42;;
43256;SDS011;28860;43.212;27.934;2023-07-30T05:51:37;3.58;;;2.13;;
43256;SDS011;28860;43.212;27.934;2023-07-30T05:54:02;3.15;;;1.90;;
43256;SDS011;28860;43.212;27.934;2023-07-30T05:56:31;6.47;;;2.50;;
43256;SDS011;28860;43.212;27.934;2023-07-30T05:58:57;6.07;;;1.80;;
43256;SDS011;28860;43.212;27.934;2023-07-30T06:01:22;12.18;;;2.20;;
43256;SDS011;28860;43.212;27.934;2023-07-30T06:03:48;3.75;;;1.80;;
43256;SDS011;28860;43.212;27.934;2023-07-30T06:06:14;6.38;;;1.95;;
43256;SDS011;28860;43.212;27.934;2023-07-30T06:08:42;6.45;;;1.98;;
43256;SDS011;28860;43.212;27.934;2023-07-30T06:11:08;3.30;;;1.80;;
43256;SDS011;28860;43.212;27.934;2023-07-30T06:13:35;4.63;;;1.90;;
43256;SDS011;28860;43.212;27.934;2023-07-30T06:16:00;9.18;;;2.20;;
43256;SDS011;28860;43.212;27.934;2023-07-30T06:18:26;3.65;;;1.90;;
43256;SDS011;28860;43.212;27.934;2023-07-30T06:20:51;2.88;;;2.00;;
43256;SDS011;28860;43.212;27.934;2023-07-30T06:23:17;3.92;;;1.92;;
43256;SDS011;28860;43.212;27.934;2023-07-30T06:25:43;4.75;;;1.70;;
43256;SDS011;28860;43.212;27.934;2023-07-30T06:28:08;3.58;;;2.05;;
43256;SDS011;28860;43.212;27.934;2023-07-30T06:30:34;5.28;;;1.92;;
43256;SDS011;28860;43.212;27.934;2023-07-30T06:33:01;8.13;;;1.95;;
43256;SDS011;28860;43.212;27.934;2023-07-30T06:35:27;5.15;;;1.90;;
43256;SDS011;28860;43.212;27.934;2023-07-30T06:37:53;3.70;;;1.60;;
43256;SDS011;28860;43.212;27.934;2023-07-30T06:40:18;5.43;;;2.20;;
43256;SDS011;28860;43.212;27.934;2023-07-30T06:42:44;4.45;;;1.83;;
43256;SDS011;28860;43.212;27.934;2023-07-30T06:45:09;3.78;;;2.25;;
43256;SDS011;28860;43.212;27.934;2023-07-30T06:47:38;6.85;;;1.92;;
43256;SDS011;28860;43.212;27.934;2023-07-30T06:50:04;5.53;;;2.20;;
43256;SDS011;28860;43.212;27.934;2023-07-30T06:52:33;5.57;;;1.67;;
43256;SDS011;28860;43.212;27.934;2023-07-30T06:55:00;5.72;;;1.80;;
43256;SDS011;28860;43.212;27.934;2023-07-30T06:57:27;2.75;;;1.70;;
43256;SDS011;28860;43.212;27.934;2023-07-30T06:59:53;3.88;;;1.75;;
43256;SDS011;28860;43.212;27.934;2023-07-30T07:02:18;3.08;;;1.63;;
43256;SDS011;28860;43.212;27.934;2023-07-30T07:04:44;5.97;;;1.95;;
43256;SDS011;28860;43.212;27.934;2023-07-30T07:07:13;4.45;;;1.48;;
43256;SDS011;28860;43.212;27.934;2023-07-30T07:09:38;2.33;;;1.45;;
43256;SDS011;28860;43.212;27.934;2023-07-30T07:12:04;8.13;;;2.00;;
43256;SDS011;28860;43.212;27.934;2023-07-30T07:14:30;2.72;;;1.52;;
43256;SDS011;28860;43.212;27.934;2023-07-30T07:16:56;2.30;;;1.52;;
43256;SDS011;28860;43.212;27.934;2023-07-30T07:19:21;5.00;;;1.70;;
43256;SDS011;28860;43.212;27.934;2023-07-30T07:21:48;3.72;;;1.52;;
43256;SDS011;28860;43.212;27.934;2023-07-30T07:24:13;4.18;;;2.03;;
43256;SDS011;28860;43.212;27.934;2023-07-30T07:26:39;8.32;;;2.25;;
43256;SDS011;28860;43.212;27.934;2023-07-30T07:29:05;1.77;;;1.63;;
43256;SDS011;28860;43.212;27.934;2023-07-30T07:31:30;4.72;;;1.88;;
43256;SDS011;28860;43.212;27.934;2023-07-30T07:33:56;3.45;;;1.77;;
43256;SDS011;28860;43.212;27.934;2023-07-30T07:36:22;3.33;;;1.98;;
43256;SDS011;28860;43.212;27.934;2023-07-30T07:38:47;5.45;;;1.85;;
43256;SDS011;28860;43.212;27.934;2023-07-30T07:41:14;6.25;;;1.90;;
43256;SDS011;28860;43.212;27.934;2023-07-30T07:43:43;4.38;;;1.90;;
43256;SDS011;28860;43.212;27.934;2023-07-30T07:46:11;5.68;;;2.00;;
43256;SDS011;28860;43.212;27.934;2023-07-30T07:48:43;2.25;;;1.70;;
43256;SDS011;28860;43.212;27.934;2023-07-30T07:51:09;3.10;;;1.73;;
43256;SDS011;28860;43.212;27.934;2023-07-30T07:53:38;3.70;;;1.67;;
43256;SDS011;28860;43.212;27.934;2023-07-30T07:56:04;4.13;;;2.47;;
43256;SDS011;28860;43.212;27.934;2023-07-30T07:58:30;5.95;;;2.35;;
43256;SDS011;28860;43.212;27.934;2023-07-30T08:01:01;3.70;;;1.92;;
43256;SDS011;28860;43.212;27.934;2023-07-30T08:03:31;2.13;;;1.60;;
43256;SDS011;28860;43.212;27.934;2023-07-30T08:05:57;5.57;;;1.70;;
43256;SDS011;28860;43.212;27.934;2023-07-30T08:08:26;4.50;;;1.63;;
43256;SDS011;28860;43.212;27.934;2023-07-30T08:10:54;4.22;;;2.00;;
43256;SDS011;28860;43.212;27.934;2023-07-30T08:13:20;2.33;;;1.63;;
43256;SDS011;28860;43.212;27.934;2023-07-30T08:15:46;6.15;;;1.70;;
43256;SDS011;28860;43.212;27.934;2023-07-30T08:18:11;5.60;;;1.75;;
43256;SDS011;28860;43.212;27.934;2023-07-30T08:20:37;14.00;;;2.67;;
43256;SDS011;28860;43.212;27.934;2023-07-30T08:23:03;6.28;;;1.90;;
43256;SDS011;28860;43.212;27.934;2023-07-30T08:25:29;3.53;;;1.58;;
43256;SDS011;28860;43.212;27.934;2023-07-30T08:27:54;4.88;;;1.90;;
43256;SDS011;28860;43.212;27.934;2023-07-30T08:30:20;5.68;;;1.70;;
43256;SDS011;28860;43.212;27.934;2023-07-30T08:32:46;4.43;;;1.83;;
43256;SDS011;28860;43.212;27.934;2023-07-30T08:35:11;4.30;;;1.70;;
43256;SDS011;28860;43.212;27.934;2023-07-30T08:37:40;6.95;;;1.80;;
43256;SDS011;28860;43.212;27.934;2023-07-30T08:40:06;3.90;;;1.98;;
43256;SDS011;28860;43.212;27.934;2023-07-30T08:42:32;2.40;;;1.67;;
43256;SDS011;28860;43.212;27.934;2023-07-30T08:44:59;5.22;;;1.80;;
43256;SDS011;28860;43.212;27.934;2023-07-30T08:47:24;3.33;;;1.92;;
43256;SDS011;28860;43.212;27.934;2023-07-30T08:49:50;3.03;;;2.00;;
43256;SDS011;28860;43.212;27.934;2023-07-30T08:52:16;3.13;;;1.88;;
43256;SDS011;28860;43.212;27.934;2023-07-30T08:54:42;2.60;;;1.77;;
43256;SDS011;28860;43.212;27.934;2023-07-30T08:57:09;3.13;;;1.88;;
43256;SDS011;28860;43.212;27.934;2023-07-30T08:59:40;2.60;;;1.70;;
43256;SDS011;28860;43.212;27.934;2023-07-30T09:02:17;6.72;;;2.15;;
43256;SDS011;28860;43.212;27.934;2023-07-30T09:04:49;6.70;;;2.00;;
43256;SDS011;28860;43.212;27.934;2023-07-30T09:07:18;4.00;;;1.80;;
43256;SDS011;28860;43.212;27.934;2023-07-30T09:09:44;2.10;;;1.67;;
43256;SDS011;28860;43.212;27.934;2023-07-30T09:12:14;5.90;;;2.10;;
43256;SDS011;28860;43.212;27.934;2023-07-30T09:14:42;3.67;;;2.10;;
43256;SDS011;28860;43.212;27.934;2023-07-30T09:17:16;4.78;;;1.75;;
43256;SDS011;28860;43.212;27.934;2023-07-30T09:19:43;3.83;;;1.80;;
43256;SDS011;28860;43.212;27.934;2023-07-30T09:22:08;4.57;;;1.80;;
43256;SDS011;28860;43.212;27.934;2023-07-30T09:24:34;4.22;;;1.90;;
43256;SDS011;28860;43.212;27.934;2023-07-30T09:27:03;2.97;;;1.80;;
43256;SDS011;28860;43.212;27.934;2023-07-30T09:29:29;2.95;;;1.90;;
43256;SDS011;28860;43.212;27.934;2023-07-30T09:31:57;2.78;;;1.65;;
43256;SDS011;28860;43.212;27.934;2023-07-30T09:34:23;6.03;;;1.92;;
43256;SDS011;28860;43.212;27.934;2023-07-30T09:36:52;4.90;;;2.22;;
43256;SDS011;28860;43.212;27.934;2023-07-30T09:39:20;4.28;;;1.88;;
43256;SDS011;28860;43.212;27.934;2023-07-30T09:41:46;4.50;;;1.90;;
43256;SDS011;28860;43.212;27.934;2023-07-30T09:44:12;2.08;;;1.77;;
43256;SDS011;28860;43.212;27.934;2023-07-30T09:46:42;3.20;;;1.90;;
43256;SDS011;28860;43.212;27.934;2023-07-30T09:49:09;3.35;;;1.75;;
43256;SDS011;28860;43.212;27.934;2023-07-30T09:51:36;4.10;;;1.60;;
43256;SDS011;28860;43.212;27.934;2023-07-30T09:54:03;2.47;;;1.70;;
43256;SDS011;28860;43.212;27.934;2023-07-30T09:56:31;4.00;;;1.67;;
43256;SDS011;28860;43.212;27.934;2023-07-30T09:58:57;2.88;;;1.83;;
43256;SDS011;28860;43.212;27.934;2023-07-30T10:01:22;4.00;;;2.03;;
43256;SDS011;28860;43.212;27.934;2023-07-30T10:03:51;3.00;;;1.95;;
43256;SDS011;28860;43.212;27.934;2023-07-30T10:06:21;2.80;;;1.65;;
43256;SDS011;28860;43.212;27.934;2023-07-30T10:08:49;7.35;;;1.98;;
43256;SDS011;28860;43.212;27.934;2023-07-30T10:11:18;1.95;;;1.45;;
43256;SDS011;28860;43.212;27.934;2023-07-30T10:13:44;4.50;;;2.13;;
43256;SDS011;28860;43.212;27.934;2023-07-30T10:16:11;4.28;;;1.90;;
43256;SDS011;28860;43.212;27.934;2023-07-30T10:18:41;1.92;;;1.60;;
43256;SDS011;28860;43.212;27.934;2023-07-30T10:21:08;2.85;;;2.00;;
43256;SDS011;28860;43.212;27.934;2023-07-30T10:23:35;4.00;;;1.95;;
43256;SDS011;28860;43.212;27.934;2023-07-30T10:26:10;5.70;;;2.20;;
43256;SDS011;28860;43.212;27.934;2023-07-30T10:28:36;6.15;;;2.63;;
43256;SDS011;28860;43.212;27.934;2023-07-30T10:31:07;3.53;;;2.30;;
43256;SDS011;28860;43.212;27.934;2023-07-30T10:33:52;5.25;;;1.90;;
43256;SDS011;28860;43.212;27.934;2023-07-30T10:36:30;4.53;;;1.48;;
43256;SDS011;28860;43.212;27.934;2023-07-30T10:38:57;4.47;;;1.73;;
43256;SDS011;28860;43.212;27.934;2023-07-30T10:41:36;7.10;;;1.63;;
43256;SDS011;28860;43.212;27.934;2023-07-30T10:44:03;4.43;;;1.77;;
43256;SDS011;28860;43.212;27.934;2023-07-30T10:46:29;3.15;;;1.80;;
43256;SDS011;28860;43.212;27.934;2023-07-30T10:48:55;3.90;;;2.03;;
43256;SDS011;28860;43.212;27.934;2023-07-30T10:51:20;5.47;;;1.80;;
43256;SDS011;28860;43.212;27.934;2023-07-30T10:53:46;4.55;;;1.60;;
43256;SDS011;28860;43.212;27.934;2023-07-30T10:56:15;3.95;;;1.67;;
43256;SDS011;28860;43.212;27.934;2023-07-30T10:58:42;2.78;;;1.77;;
43256;SDS011;28860;43.212;27.934;2023-07-30T11:01:13;3.35;;;1.63;;
43256;SDS011;28860;43.212;27.934;2023-07-30T11:03:39;3.05;;;1.70;;
43256;SDS011;28860;43.212;27.934;2023-07-30T11:06:05;2.85;;;1.90;;
43256;SDS011;28860;43.212;27.934;2023-07-30T11:08:39;4.63;;;1.98;;
43256;SDS011;28860;43.212;27.934;2023-07-30T11:11:07;3.00;;;1.75;;
43256;SDS011;28860;43.212;27.934;2023-07-30T11:13:44;4.18;;;1.67;;
43256;SDS011;28860;43.212;27.934;2023-07-30T11:16:11;4.03;;;1.83;;
43256;SDS011;28860;43.212;27.934;2023-07-30T11:18:41;3.95;;;1.42;;
43256;SDS011;28860;43.212;27.934;2023-07-30T11:21:09;2.92;;;1.20;;
43256;SDS011;28860;43.212;27.934;2023-07-30T11:23:36;4.03;;;1.50;;
43256;SDS011;28860;43.212;27.934;2023-07-30T11:26:04;3.35;;;1.50;;
43256;SDS011;28860;43.212;27.934;2023-07-30T11:31:04;4.60;;;1.27;;
43256;SDS011;28860;43.212;27.934;2023-07-30T11:33:41;4.45;;;1.90;;
43256;SDS011;28860;43.212;27.934;2023-07-30T11:36:09;2.45;;;1.42;;
43256;SDS011;28860;43.212;27.934;2023-07-30T11:38:38;2.45;;;1.58;;
43256;SDS011;28860;43.212;27.934;2023-07-30T11:41:05;7.40;;;1.85;;
43256;SDS011;28860;43.212;27.934;2023-07-30T11:43:35;1.60;;;1.35;;
43256;SDS011;28860;43.212;27.934;2023-07-30T11:46:06;5.97;;;1.60;;
43256;SDS011;28860;43.212;27.934;2023-07-30T11:48:37;3.53;;;1.42;;
43256;SDS011;28860;43.212;27.934;2023-07-30T11:51:03;4.15;;;1.23;;
43256;SDS011;28860;43.212;27.934;2023-07-30T11:53:45;2.83;;;1.50;;
43256;SDS011;28860;43.212;27.934;2023-07-30T11:59:07;3.58;;;1.42;;
43256;SDS011;28860;43.212;27.934;2023-07-30T12:01:34;3.00;;;1.30;;
43256;SDS011;28860;43.212;27.934;2023-07-30T12:04:02;4.70;;;1.45;;
43256;SDS011;28860;43.212;27.934;2023-07-30T12:09:14;2.17;;;1.23;;
43256;SDS011;28860;43.212;27.934;2023-07-30T12:11:57;2.70;;;1.33;;
43256;SDS011;28860;43.212;27.934;2023-07-30T12:14:25;2.00;;;1.10;;
43256;SDS011;28860;43.212;27.934;2023-07-30T12:16:56;2.27;;;1.37;;
43256;SDS011;28860;43.212;27.934;2023-07-30T12:19:21;2.30;;;1.17;;
43256;SDS011;28860;43.212;27.934;2023-07-30T12:21:47;2.25;;;1.30;;
43256;SDS011;28860;43.212;27.934;2023-07-30T12:24:13;3.38;;;1.30;;
43256;SDS011;28860;43.212;27.934;2023-07-30T12:26:38;8.68;;;1.85;;
43256;SDS011;28860;43.212;27.934;2023-07-30T12:29:07;2.80;;;1.50;;
43256;SDS011;28860;43.212;27.934;2023-07-30T12:31:35;2.40;;;1.25;;
43256;SDS011;28860;43.212;27.934;2023-07-30T12:34:00;4.88;;;2.00;;
43256;SDS011;28860;43.212;27.934;2023-07-30T12:36:26;3.83;;;1.30;;
43256;SDS011;28860;43.212;27.934;2023-07-30T12:38:52;5.50;;;1.77;;
43256;SDS011;28860;43.212;27.934;2023-07-30T12:41:19;6.85;;;1.63;;
43256;SDS011;28860;43.212;27.934;2023-07-30T12:43:51;2.47;;;1.17;;
43256;SDS011;28860;43.212;27.934;2023-07-30T12:46:22;1.70;;;1.20;;
43256;SDS011;28860;43.212;27.934;2023-07-30T12:48:48;4.03;;;1.20;;
43256;SDS011;28860;43.212;27.934;2023-07-30T12:51:13;1.55;;;1.20;;
43256;SDS011;28860;43.212;27.934;2023-07-30T12:53:39;4.80;;;1.63;;
43256;SDS011;28860;43.212;27.934;2023-07-30T12:56:05;3.75;;;1.20;;
43256;SDS011;28860;43.212;27.934;2023-07-30T12:58:30;2.15;;;1.23;;
43256;SDS011;28860;43.212;27.934;2023-07-30T13:00:58;3.05;;;1.15;;
43256;SDS011;28860;43.212;27.934;2023-07-30T13:03:24;4.82;;;1.50;;
43256;SDS011;28860;43.212;27.934;2023-07-30T13:05:49;3.42;;;1.40;;
43256;SDS011;28860;43.212;27.934;2023-07-30T13:08:15;5.80;;;1.60;;
43256;SDS011;28860;43.212;27.934;2023-07-30T13:10:40;5.25;;;1.33;;
43256;SDS011;28860;43.212;27.934;2023-07-30T13:13:06;4.25;;;1.40;;
43256;SDS011;28860;43.212;27.934;2023-07-30T13:15:31;2.95;;;1.15;;
43256;SDS011;28860;43.212;27.934;2023-07-30T13:17:57;5.65;;;1.13;;
43256;SDS011;28860;43.212;27.934;2023-07-30T13:20:22;5.45;;;1.60;;
43256;SDS011;28860;43.212;27.934;2023-07-30T13:22:51;1.95;;;1.27;;
43256;SDS011;28860;43.212;27.934;2023-07-30T13:25:19;1.40;;;1.08;;
43256;SDS011;28860;43.212;27.934;2023-07-30T13:27:47;2.78;;;1.02;;
43256;SDS011;28860;43.212;27.934;2023-07-30T13:30:13;1.85;;;1.13;;
43256;SDS011;28860;43.212;27.934;2023-07-30T13:32:38;5.05;;;1.30;;
43256;SDS011;28860;43.212;27.934;2023-07-30T13:35:04;1.80;;;1.23;;
43256;SDS011;28860;43.212;27.934;2023-07-30T13:37:30;2.10;;;1.00;;
43256;SDS011;28860;43.212;27.934;2023-07-30T13:39:55;5.47;;;1.77;;
43256;SDS011;28860;43.212;27.934;2023-07-30T13:42:21;5.13;;;1.30;;
43256;SDS011;28860;43.212;27.934;2023-07-30T13:44:46;3.65;;;1.60;;
43256;SDS011;28860;43.212;27.934;2023-07-30T13:47:12;2.58;;;1.50;;
43256;SDS011;28860;43.212;27.934;2023-07-30T13:49:38;2.33;;;1.42;;
43256;SDS011;28860;43.212;27.934;2023-07-30T13:52:04;3.33;;;1.88;;
43256;SDS011;28860;43.212;27.934;2023-07-30T13:54:30;2.47;;;1.48;;
43256;SDS011;28860;43.212;27.934;2023-07-30T13:56:57;7.30;;;1.50;;
43256;SDS011;28860;43.212;27.934;2023-07-30T13:59:23;3.47;;;1.27;;
43256;SDS011;28860;43.212;27.934;2023-07-30T14:01:48;9.02;;;1.60;;
43256;SDS011;28860;43.212;27.934;2023-07-30T14:04:14;3.92;;;1.30;;
43256;SDS011;28860;43.212;27.934;2023-07-30T14:06:39;2.53;;;1.27;;
43256;SDS011;28860;43.212;27.934;2023-07-30T14:09:05;4.30;;;1.42;;
43256;SDS011;28860;43.212;27.934;2023-07-30T14:11:31;10.15;;;2.05;;
43256;SDS011;28860;43.212;27.934;2023-07-30T14:13:57;2.38;;;1.30;;
43256;SDS011;28860;43.212;27.934;2023-07-30T14:16:23;2.55;;;1.58;;
43256;SDS011;28860;43.212;27.934;2023-07-30T14:18:48;5.88;;;1.85;;
43256;SDS011;28860;43.212;27.934;2023-07-30T14:21:17;10.43;;;1.63;;
43256;SDS011;28860;43.212;27.934;2023-07-30T14:23:47;12.32;;;2.20;;
43256;SDS011;28860;43.212;27.934;2023-07-30T14:26:13;5.03;;;1.60;;
43256;SDS011;28860;43.212;27.934;2023-07-30T14:28:38;2.53;;;1.30;;
43256;SDS011;28860;43.212;27.934;2023-07-30T14:31:05;4.63;;;1.50;;
43256;SDS011;28860;43.212;27.934;2023-07-30T14:33:31;4.68;;;1.50;;
43256;SDS011;28860;43.212;27.934;2023-07-30T14:35:56;4.30;;;1.98;;
43256;SDS011;28860;43.212;27.934;2023-07-30T14:38:22;3.90;;;1.55;;